createdAt,value
2019-02-12T00:01:34.893Z,5.78
2019-02-12T00:04:03.287Z,3.67
2019-02-12T00:06:31.682Z,5.83
2019-02-12T00:09:00.095Z,6.83
2019-02-12T00:11:28.483Z,6.33
2019-02-12T00:13:56.876Z,5.92
2019-02-12T00:16:25.280Z,6.53
2019-02-12T00:18:53.672Z,5.70
2019-02-12T00:21:22.064Z,5.83
2019-02-12T00:23:50.468Z,8.75
2019-02-12T00:26:18.865Z,7.65
2019-02-12T00:28:47.325Z,8.95
2019-02-12T00:31:15.863Z,4.67
2019-02-12T00:33:44.256Z,6.60
2019-02-12T00:36:12.662Z,6.58
2019-02-12T00:38:41.145Z,5.78
2019-02-12T00:41:09.625Z,4.85
2019-02-12T00:43:38.027Z,5.28
2019-02-12T00:46:06.488Z,5.03
2019-02-12T00:48:34.884Z,6.40
2019-02-12T00:51:03.286Z,3.37
2019-02-12T00:53:31.689Z,6.03
2019-02-12T00:56:00.148Z,8.23
2019-02-12T00:58:28.545Z,2.45
2019-02-12T01:00:56.948Z,7.00
2019-02-12T01:03:25.343Z,6.00
2019-02-12T01:05:53.984Z,5.87
2019-02-12T01:08:22.376Z,3.72
2019-02-12T01:10:50.773Z,3.47
2019-02-12T01:13:19.181Z,6.17
2019-02-12T01:15:47.573Z,4.25
2019-02-12T01:18:15.965Z,9.43
2019-02-12T01:20:44.356Z,4.90
2019-02-12T01:23:12.822Z,4.17
2019-02-12T01:25:41.226Z,3.33
2019-02-12T01:28:09.621Z,6.45
2019-02-12T01:30:38.022Z,5.85
2019-02-12T01:33:06.423Z,9.95
2019-02-12T01:35:34.847Z,4.15
2019-02-12T01:38:03.264Z,3.30
2019-02-12T01:40:31.658Z,3.30
2019-02-12T01:43:00.125Z,4.28
2019-02-12T01:45:28.561Z,2.05
2019-02-12T01:47:56.956Z,3.58
2019-02-12T01:50:25.349Z,3.50
2019-02-12T01:52:53.740Z,4.53
2019-02-12T01:55:22.208Z,6.45
2019-02-12T01:57:50.600Z,3.35
2019-02-12T02:00:19.006Z,6.62
2019-02-12T02:02:47.400Z,6.75
2019-02-12T02:05:15.801Z,6.80
2019-02-12T02:07:44.201Z,6.90
2019-02-12T02:10:15.146Z,10.48
2019-02-12T02:12:43.613Z,4.83
2019-02-12T02:15:12.694Z,6.72
2019-02-12T02:17:41.100Z,9.33
2019-02-12T02:20:11.755Z,13.28
2019-02-12T02:22:40.197Z,5.37
2019-02-12T02:25:10.728Z,7.47
2019-02-12T02:27:39.125Z,8.30
2019-02-12T02:30:12.501Z,7.80
2019-02-12T02:32:40.899Z,8.53
2019-02-12T02:35:09.361Z,5.92
2019-02-12T02:37:37.788Z,4.78
2019-02-12T02:40:08.218Z,6.20
2019-02-12T02:42:36.612Z,5.08
2019-02-12T02:45:07.172Z,2.95
2019-02-12T02:47:35.568Z,6.67
2019-02-12T02:50:05.142Z,6.78
2019-02-12T02:52:33.550Z,5.08
2019-02-12T02:55:01.944Z,5.05
2019-02-12T02:57:30.353Z,5.30
2019-02-12T02:59:58.741Z,7.35
2019-02-12T03:02:27.174Z,5.17
2019-02-12T03:04:55.561Z,4.80
2019-02-12T03:07:24.029Z,10.63
2019-02-12T03:09:52.419Z,3.55
2019-02-12T03:12:20.816Z,4.45
2019-02-12T03:14:49.349Z,6.97
2019-02-12T03:17:17.777Z,4.10
2019-02-12T03:19:46.165Z,7.40
2019-02-12T03:22:14.563Z,7.70
2019-02-12T03:24:42.975Z,8.85
2019-02-12T03:27:11.442Z,4.97
2019-02-12T03:29:39.840Z,5.65
2019-02-12T03:32:08.246Z,5.03
2019-02-12T03:34:36.625Z,4.50
2019-02-12T03:37:05.515Z,3.22
2019-02-12T03:39:33.910Z,6.78
2019-02-12T03:42:02.328Z,5.00
2019-02-12T03:44:30.793Z,6.60
2019-02-12T03:46:59.194Z,5.30
2019-02-12T03:49:27.580Z,7.12
2019-02-12T03:51:56.002Z,8.68
2019-02-12T03:54:24.411Z,6.12
2019-02-12T03:56:52.841Z,10.80
2019-02-12T03:59:21.309Z,4.28
2019-02-12T04:01:49.778Z,11.90
2019-02-12T04:04:18.169Z,3.67
2019-02-12T04:06:46.561Z,8.23
2019-02-12T04:09:14.969Z,3.92
2019-02-12T04:11:43.374Z,8.68
2019-02-12T04:14:11.769Z,14.70
2019-02-12T04:16:40.176Z,11.28
2019-02-12T04:19:08.569Z,15.35
2019-02-12T04:21:36.988Z,11.12
2019-02-12T04:24:05.362Z,12.58
2019-02-12T04:26:33.769Z,5.67
2019-02-12T04:29:02.236Z,7.67
2019-02-12T04:31:30.625Z,7.28
2019-02-12T04:33:59.030Z,7.80
2019-02-12T04:36:27.434Z,5.78
2019-02-12T04:38:55.829Z,8.28
2019-02-12T04:41:24.232Z,8.78
2019-02-12T04:43:52.629Z,7.75
2019-02-12T04:46:21.016Z,5.75
2019-02-12T04:48:49.416Z,7.62
2019-02-12T04:51:17.809Z,6.87
2019-02-12T04:53:46.206Z,6.97
2019-02-12T04:56:14.601Z,6.80
2019-02-12T04:58:43.003Z,10.20
2019-02-12T05:01:11.388Z,10.90
2019-02-12T05:03:39.790Z,8.45
2019-02-12T05:06:08.187Z,10.58
2019-02-12T05:08:39.858Z,8.53
2019-02-12T05:11:08.523Z,9.18
2019-02-12T05:13:36.935Z,8.98
2019-02-12T05:16:05.578Z,11.60
2019-02-12T05:18:34.051Z,13.93
2019-02-12T05:21:02.538Z,10.38
2019-02-12T05:23:30.937Z,9.50
2019-02-12T05:25:59.338Z,11.73
2019-02-12T05:28:27.805Z,9.93
2019-02-12T05:30:56.236Z,8.88
2019-02-12T05:33:24.634Z,10.88
2019-02-12T05:35:53.101Z,11.78
2019-02-12T05:38:21.494Z,10.08
2019-02-12T05:40:49.894Z,7.87
2019-02-12T05:43:18.285Z,9.65
2019-02-12T05:45:46.731Z,9.33
2019-02-12T05:48:15.118Z,8.53
2019-02-12T05:50:43.515Z,16.50
2019-02-12T05:53:11.916Z,11.50
2019-02-12T05:55:40.312Z,12.25
2019-02-12T05:58:08.902Z,13.38
2019-02-12T06:00:37.368Z,8.68
2019-02-12T06:03:05.768Z,13.58
2019-02-12T06:05:34.172Z,13.62
2019-02-12T06:08:02.660Z,14.50
2019-02-12T06:10:31.116Z,16.37
2019-02-12T06:12:59.541Z,9.43
2019-02-12T06:15:27.936Z,12.58
2019-02-12T06:17:56.412Z,9.63
2019-02-12T06:20:24.949Z,18.90
2019-02-12T06:23:03.002Z,14.03
2019-02-12T06:25:23.474Z,20.13
2019-02-12T06:27:51.853Z,12.95
2019-02-12T06:30:20.321Z,15.50
2019-02-12T06:32:48.734Z,14.43
2019-02-12T06:35:17.162Z,13.03
2019-02-12T06:37:45.606Z,11.55
2019-02-12T06:40:13.948Z,14.43
2019-02-12T06:42:42.353Z,14.93
2019-02-12T06:45:13.435Z,14.23
2019-02-12T06:50:14.004Z,6.33
2019-02-12T06:52:42.418Z,12.65
2019-02-12T06:55:11.352Z,11.88
2019-02-12T06:57:39.750Z,14.23
2019-02-12T07:00:17.159Z,9.28
2019-02-12T07:03:08.711Z,16.32
2019-02-12T07:05:42.550Z,14.93
2019-02-12T07:08:26.128Z,9.38
2019-02-12T07:10:58.642Z,10.95
2019-02-12T07:13:30.300Z,7.53
2019-02-12T07:16:01.436Z,9.48
2019-02-12T07:21:17.278Z,7.58
2019-02-12T07:24:05.691Z,7.75
2019-02-12T07:26:55.704Z,9.10
2019-02-12T07:29:39.138Z,7.95
2019-02-12T07:32:22.573Z,5.90
2019-02-12T07:34:57.007Z,8.90
2019-02-12T07:37:40.993Z,11.90
2019-02-12T07:40:21.465Z,5.40
2019-02-12T07:43:02.207Z,12.30
2019-02-12T07:45:45.811Z,12.95
2019-02-12T07:48:17.477Z,8.80
2019-02-12T07:51:00.914Z,6.28
2019-02-12T07:53:49.956Z,9.40
2019-02-12T07:56:45.264Z,9.75
2019-02-12T07:59:25.779Z,9.33
2019-02-12T08:02:17.151Z,7.62
2019-02-12T08:05:05.770Z,8.30
2019-02-12T08:07:49.574Z,7.17
2019-02-12T08:10:33.278Z,5.55
2019-02-12T08:13:20.240Z,8.10
2019-02-12T08:15:51.909Z,6.40
2019-02-12T08:18:29.745Z,8.88
2019-02-12T08:21:36.556Z,9.13
2019-02-12T08:24:24.908Z,10.30
2019-02-12T08:26:59.472Z,10.32
2019-02-12T08:29:43.918Z,8.10
2019-02-12T08:32:26.160Z,9.38
2019-02-12T08:35:23.640Z,8.45
2019-02-12T08:38:22.813Z,5.05
2019-02-12T08:41:11.100Z,6.40
2019-02-12T08:43:57.729Z,5.47
2019-02-12T08:46:45.989Z,8.05
2019-02-12T08:49:23.712Z,5.97
2019-02-12T08:52:04.264Z,10.72
2019-02-12T08:54:51.007Z,7.58
2019-02-12T08:57:25.448Z,6.62
2019-02-12T09:00:00.065Z,8.95
2019-02-12T09:03:01.984Z,5.17
2019-02-12T09:05:39.290Z,7.37
2019-02-12T09:08:19.601Z,7.42
2019-02-12T09:10:57.033Z,8.23
2019-02-12T09:13:28.697Z,9.95
2019-02-12T09:16:18.287Z,10.85
2019-02-12T09:18:55.843Z,8.15
2019-02-12T09:21:30.074Z,8.85
2019-02-12T09:24:04.697Z,10.10
2019-02-12T09:26:42.589Z,5.15
2019-02-12T09:29:14.381Z,8.93
2019-02-12T09:31:57.877Z,5.95
2019-02-12T09:34:38.369Z,7.87
2019-02-12T09:37:18.596Z,8.50
2019-02-12T09:39:58.830Z,6.87
2019-02-12T09:42:45.470Z,5.42
2019-02-12T09:45:29.008Z,9.13
2019-02-12T09:48:09.354Z,12.20
2019-02-12T09:50:49.998Z,6.47
2019-02-12T09:53:38.268Z,11.85
2019-02-12T09:56:27.858Z,8.83
2019-02-12T09:59:19.882Z,8.40
2019-02-12T10:02:25.033Z,11.00
2019-02-12T10:05:13.419Z,8.65
2019-02-12T10:08:12.343Z,11.20
2019-02-12T10:10:58.877Z,9.50
2019-02-12T10:13:33.285Z,5.95
2019-02-12T10:16:28.996Z,7.95
2019-02-12T10:19:03.560Z,6.85
2019-02-12T10:21:44.240Z,10.45
2019-02-12T10:24:28.145Z,6.12
2019-02-12T10:27:05.912Z,7.90
2019-02-12T10:29:49.472Z,5.28
2019-02-12T10:32:16.996Z,5.90
2019-02-12T10:34:45.502Z,4.65
2019-02-12T10:37:13.974Z,7.50
2019-02-12T10:39:42.380Z,12.40
2019-02-12T10:42:10.807Z,7.15
2019-02-12T10:44:39.273Z,10.00
2019-02-12T10:47:08.426Z,12.37
2019-02-12T10:49:36.892Z,10.10
2019-02-12T10:52:05.289Z,12.33
2019-02-12T10:54:33.693Z,9.35
2019-02-12T10:57:02.090Z,6.33
2019-02-12T10:59:30.528Z,11.68
2019-02-12T11:01:58.937Z,7.40
2019-02-12T11:04:27.330Z,6.40
2019-02-12T11:06:55.751Z,5.08
2019-02-12T11:09:24.144Z,7.75
2019-02-12T11:11:52.587Z,6.20
2019-02-12T11:14:21.046Z,4.78
2019-02-12T11:16:49.511Z,2.95
2019-02-12T11:19:17.925Z,4.30
2019-02-12T11:21:46.389Z,5.35
2019-02-12T11:24:14.826Z,4.15
2019-02-12T11:26:43.207Z,5.95
2019-02-12T11:29:11.605Z,6.28
2019-02-12T11:31:40.017Z,4.33
2019-02-12T11:34:08.465Z,7.95
2019-02-12T11:36:36.894Z,4.67
2019-02-12T11:39:05.935Z,4.67
2019-02-12T11:41:36.059Z,3.47
2019-02-12T11:44:04.620Z,5.33
2019-02-12T11:46:33.093Z,5.22
2019-02-12T11:49:01.581Z,6.33
2019-02-12T11:51:29.982Z,6.50
2019-02-12T11:53:58.372Z,3.15
2019-02-12T11:56:26.768Z,6.45
2019-02-12T11:58:55.172Z,6.42
2019-02-12T12:01:24.874Z,4.72
2019-02-12T12:03:53.271Z,6.70
2019-02-12T12:06:21.747Z,6.00
2019-02-12T12:08:50.145Z,7.83
2019-02-12T12:11:18.546Z,9.25
2019-02-12T12:13:46.987Z,5.97
2019-02-12T12:16:15.460Z,6.05
2019-02-12T12:18:43.933Z,12.00
2019-02-12T12:21:12.339Z,4.92
2019-02-12T12:23:40.742Z,5.95
2019-02-12T12:26:09.174Z,6.80
2019-02-12T12:28:37.629Z,6.53
2019-02-12T12:31:06.061Z,8.93
2019-02-12T12:33:34.475Z,10.13
2019-02-12T12:36:02.870Z,6.47
2019-02-12T12:38:31.360Z,9.40
2019-02-12T12:40:59.757Z,9.75
2019-02-12T12:43:29.777Z,9.50
2019-02-12T12:45:58.270Z,8.98
2019-02-12T12:48:26.656Z,10.15
2019-02-12T12:50:55.091Z,10.78
2019-02-12T12:53:23.492Z,12.30
2019-02-12T12:55:51.964Z,6.60
2019-02-12T12:58:20.438Z,7.25
2019-02-12T13:00:48.825Z,10.95
2019-02-12T13:03:17.236Z,5.58
2019-02-12T13:05:45.624Z,5.30
2019-02-12T13:08:14.156Z,6.28
2019-02-12T13:10:42.570Z,11.95
2019-02-12T13:13:11.044Z,10.50
2019-02-12T13:15:39.620Z,10.23
2019-02-12T13:18:08.059Z,13.05
2019-02-12T13:20:36.510Z,11.25
2019-02-12T13:23:04.945Z,8.73
2019-02-12T13:25:33.305Z,10.55
2019-02-12T13:28:01.725Z,8.10
2019-02-12T13:30:30.167Z,10.88
2019-02-12T13:32:58.533Z,13.85
2019-02-12T13:35:26.933Z,9.40
2019-02-12T13:37:55.377Z,11.80
2019-02-12T13:40:23.756Z,6.15
2019-02-12T13:42:52.155Z,12.13
2019-02-12T13:45:20.558Z,9.33
2019-02-12T13:47:48.969Z,7.42
2019-02-12T13:50:17.383Z,9.23
2019-02-12T13:52:45.965Z,7.53
2019-02-12T13:55:17.332Z,10.55
2019-02-12T13:57:44.513Z,10.28
2019-02-12T14:00:17.454Z,8.85
2019-02-12T14:02:45.850Z,6.60
2019-02-12T14:05:20.163Z,11.78
2019-02-12T14:07:48.552Z,8.13
2019-02-12T14:10:16.953Z,9.65
2019-02-12T14:12:45.352Z,9.48
2019-02-12T14:15:14.015Z,7.78
2019-02-12T14:17:42.456Z,13.40
2019-02-12T14:20:14.142Z,6.58
2019-02-12T14:22:42.536Z,8.78
2019-02-12T14:25:12.736Z,8.05
2019-02-12T14:27:42.146Z,5.90
2019-02-12T14:30:13.022Z,7.33
2019-02-12T14:32:41.484Z,4.53
2019-02-12T14:35:11.805Z,5.17
2019-02-12T14:37:40.303Z,5.97
2019-02-12T14:40:10.993Z,2.25
2019-02-12T14:42:39.350Z,6.30
2019-02-12T14:45:12.742Z,8.98
2019-02-12T14:47:41.128Z,9.13
2019-02-12T14:50:11.806Z,9.53
2019-02-12T14:52:40.216Z,6.33
2019-02-12T14:55:08.679Z,4.20
2019-02-12T14:57:37.080Z,6.05
2019-02-12T15:00:11.973Z,3.27
2019-02-12T15:02:40.475Z,7.72
2019-02-12T15:05:08.900Z,5.12
2019-02-12T15:07:37.417Z,4.22
2019-02-12T15:10:08.925Z,6.35
2019-02-12T15:12:37.335Z,6.00
2019-02-12T15:15:07.879Z,5.80
2019-02-12T15:17:36.281Z,10.82
2019-02-12T15:20:08.189Z,6.12
2019-02-12T15:22:37.467Z,5.97
2019-02-12T15:25:07.700Z,6.90
2019-02-12T15:27:36.125Z,17.07
2019-02-12T15:30:07.678Z,23.83
2019-02-12T15:32:36.068Z,28.60
2019-02-12T15:35:06.584Z,28.40
2019-02-12T15:37:34.986Z,24.63
2019-02-12T15:40:04.656Z,24.95
2019-02-12T15:42:33.431Z,30.12
2019-02-12T15:45:01.909Z,34.43
2019-02-12T15:47:30.312Z,50.25
2019-02-12T15:49:58.714Z,63.83
2019-02-12T15:52:27.162Z,51.15
2019-02-12T15:54:55.628Z,50.20
2019-02-12T15:57:24.952Z,48.10
2019-02-12T15:59:55.678Z,54.83
2019-02-12T16:02:24.140Z,59.33
2019-02-12T16:04:52.624Z,57.58
2019-02-12T16:07:22.462Z,40.98
2019-02-12T16:09:52.528Z,43.30
2019-02-12T16:12:21.363Z,40.35
2019-02-12T16:14:49.759Z,29.67
2019-02-12T16:17:18.161Z,22.77
2019-02-12T16:19:47.004Z,19.30
2019-02-12T16:22:16.810Z,24.13
2019-02-12T16:24:46.107Z,19.67
2019-02-12T16:27:14.624Z,18.00
2019-02-12T16:29:43.001Z,19.37
2019-02-12T16:32:11.500Z,27.00
2019-02-12T16:34:40.000Z,31.33
2019-02-12T16:37:08.415Z,40.25
2019-02-12T16:39:36.851Z,37.30
2019-02-12T16:42:05.220Z,39.88
2019-02-12T16:44:33.624Z,39.38
2019-02-12T16:47:02.086Z,47.75
2019-02-12T16:49:30.481Z,48.40
2019-02-12T16:51:58.898Z,38.63
2019-02-12T16:54:27.296Z,44.88
2019-02-12T16:56:55.696Z,42.95
2019-02-12T16:59:24.129Z,44.23
2019-02-12T17:01:52.596Z,52.75
2019-02-12T17:04:20.995Z,54.65
2019-02-12T17:06:49.477Z,42.55
2019-02-12T17:09:17.880Z,36.65
2019-02-12T17:11:46.451Z,30.82
2019-02-12T17:14:14.872Z,30.82
2019-02-12T17:16:43.304Z,29.85
2019-02-12T17:19:11.716Z,24.70
2019-02-12T17:21:40.136Z,17.15
2019-02-12T17:24:08.554Z,13.70
2019-02-12T17:26:36.949Z,12.40
2019-02-12T17:29:05.376Z,18.27
2019-02-12T17:31:33.850Z,30.65
2019-02-12T17:34:02.326Z,32.00
2019-02-12T17:36:30.730Z,31.05
2019-02-12T17:38:59.128Z,24.67
2019-02-12T17:41:27.530Z,13.62
2019-02-12T17:43:55.933Z,10.05
2019-02-12T17:46:24.434Z,5.67
2019-02-12T17:48:52.825Z,6.70
2019-02-12T17:51:21.221Z,4.10
2019-02-12T17:53:49.697Z,9.73
2019-02-12T17:56:24.773Z,8.28
2019-02-12T17:58:48.161Z,5.87
2019-02-12T18:01:16.635Z,8.65
2019-02-12T18:03:45.025Z,8.75
2019-02-12T18:06:13.434Z,9.05
2019-02-12T18:08:41.842Z,10.10
2019-02-12T18:11:10.333Z,17.67
2019-02-12T18:13:38.734Z,16.55
2019-02-12T18:16:07.469Z,16.10
2019-02-12T18:18:35.944Z,11.88
2019-02-12T18:21:04.408Z,12.25
2019-02-12T18:23:32.977Z,18.02
2019-02-12T18:26:02.519Z,33.90
2019-02-12T18:28:30.916Z,38.63
2019-02-12T18:30:59.352Z,43.50
2019-02-12T18:33:27.726Z,47.35
2019-02-12T18:35:56.154Z,47.73
2019-02-12T18:38:24.712Z,30.75
2019-02-12T18:40:53.189Z,19.87
2019-02-12T18:43:21.649Z,8.45
2019-02-12T18:45:50.125Z,10.90
2019-02-12T18:48:18.620Z,5.05
2019-02-12T18:50:47.021Z,5.05
2019-02-12T18:53:15.628Z,6.78
2019-02-12T18:55:44.021Z,7.42
2019-02-12T18:58:12.415Z,9.10
2019-02-12T19:00:40.981Z,6.95
2019-02-12T19:03:09.385Z,7.33
2019-02-12T19:05:37.844Z,9.00
2019-02-12T19:08:06.250Z,10.32
2019-02-12T19:10:34.667Z,7.72
2019-02-12T19:13:03.089Z,8.60
2019-02-12T19:15:31.489Z,8.78
2019-02-12T19:18:12.168Z,4.72
2019-02-12T19:20:40.741Z,13.75
2019-02-12T19:23:09.223Z,11.38
2019-02-12T19:25:37.618Z,10.38
2019-02-12T19:28:06.024Z,8.60
2019-02-12T19:30:34.504Z,22.02
2019-02-12T19:33:02.913Z,10.28
2019-02-12T19:35:31.308Z,14.85
2019-02-12T19:37:59.707Z,9.85
2019-02-12T19:40:28.109Z,7.05
2019-02-12T19:45:30.361Z,9.75
2019-02-12T19:47:58.809Z,8.63
2019-02-12T19:50:27.332Z,6.62
2019-02-12T19:52:55.745Z,3.30
2019-02-12T19:55:24.160Z,2.85
2019-02-12T19:57:52.717Z,6.75
2019-02-12T20:00:21.199Z,7.17
2019-02-12T20:02:50.529Z,5.22
2019-02-12T20:05:19.516Z,7.55
2019-02-12T20:07:47.912Z,6.87
2019-02-12T20:10:16.382Z,4.60
2019-02-12T20:12:44.782Z,7.53
2019-02-12T20:15:15.780Z,6.47
2019-02-12T20:17:44.173Z,8.95
2019-02-12T20:20:13.344Z,11.68
2019-02-12T20:22:41.756Z,2.62
2019-02-12T20:25:10.882Z,3.40
2019-02-12T20:27:39.334Z,7.87
2019-02-12T20:30:16.695Z,7.00
2019-02-12T20:32:45.154Z,9.48
2019-02-12T20:35:18.588Z,4.33
2019-02-12T20:37:46.997Z,8.70
2019-02-12T20:40:15.425Z,6.97
2019-02-12T20:42:43.828Z,4.60
2019-02-12T20:45:14.824Z,7.20
2019-02-12T20:47:43.245Z,9.10
2019-02-12T20:50:17.492Z,5.17
2019-02-12T20:52:45.932Z,5.05
2019-02-12T20:55:14.380Z,12.47
2019-02-12T20:57:42.836Z,11.73
2019-02-12T21:00:25.123Z,7.35
2019-02-12T21:02:53.516Z,6.67
2019-02-12T21:05:22.917Z,3.92
2019-02-12T21:07:51.510Z,9.35
2019-02-12T21:10:24.502Z,8.68
2019-02-12T21:12:53.008Z,4.25
2019-02-12T21:15:26.420Z,7.92
2019-02-12T21:17:54.917Z,14.33
2019-02-12T21:20:23.327Z,6.95
2019-02-12T21:22:51.717Z,10.90
2019-02-12T21:25:20.200Z,5.75
2019-02-12T21:27:48.657Z,8.90
2019-02-12T21:30:25.296Z,12.95
2019-02-12T21:32:53.773Z,10.58
2019-02-12T21:35:22.234Z,10.23
2019-02-12T21:37:50.702Z,11.35
2019-02-12T21:40:23.839Z,6.87
2019-02-12T21:42:52.229Z,13.00
2019-02-12T21:45:20.691Z,4.80
2019-02-12T21:47:49.120Z,6.17
2019-02-12T21:50:17.528Z,10.13
2019-02-12T21:52:45.920Z,9.05
2019-02-12T21:55:18.821Z,8.88
2019-02-12T21:57:47.208Z,10.55
2019-02-12T22:00:19.912Z,10.53
2019-02-12T22:02:48.333Z,6.10
2019-02-12T22:05:17.474Z,12.10
2019-02-12T22:07:45.947Z,9.95
2019-02-12T22:10:17.601Z,6.92
2019-02-12T22:12:46.038Z,13.95
2019-02-12T22:15:14.428Z,10.32
2019-02-12T22:17:42.828Z,7.03
2019-02-12T22:20:13.929Z,8.85
2019-02-12T22:25:10.516Z,10.03
2019-02-12T22:27:40.623Z,8.50
2019-02-12T22:30:14.381Z,7.03
2019-02-12T22:32:42.773Z,8.58
2019-02-12T22:35:12.059Z,12.45
2019-02-12T22:37:40.466Z,14.18
2019-02-12T22:40:13.653Z,12.68
2019-02-12T22:42:42.083Z,10.60
2019-02-12T22:45:16.864Z,8.40
2019-02-12T22:47:45.282Z,11.85
2019-02-12T22:50:13.944Z,6.42
2019-02-12T22:52:42.455Z,7.42
2019-02-12T22:55:11.231Z,8.05
2019-02-12T22:57:39.694Z,4.25
2019-02-12T23:00:47.196Z,11.57
2019-02-12T23:03:15.677Z,14.00
2019-02-12T23:05:44.148Z,14.80
2019-02-12T23:08:12.654Z,11.55
2019-02-12T23:10:41.062Z,7.28
2019-02-12T23:13:09.460Z,8.33
2019-02-12T23:15:37.905Z,13.55
2019-02-12T23:18:06.335Z,10.40
2019-02-12T23:20:34.764Z,16.15
2019-02-12T23:23:03.195Z,17.48
2019-02-12T23:25:31.589Z,10.55
2019-02-12T23:27:59.990Z,10.55
2019-02-12T23:30:28.471Z,9.50
2019-02-12T23:32:56.873Z,11.68
2019-02-12T23:35:25.274Z,13.00
2019-02-12T23:37:54.568Z,8.30
2019-02-12T23:40:22.965Z,6.33
2019-02-12T23:42:51.361Z,8.40
2019-02-12T23:45:19.873Z,7.70
2019-02-12T23:47:48.334Z,8.88
2019-02-12T23:50:16.842Z,9.28
2019-02-12T23:52:45.351Z,7.70
2019-02-12T23:55:13.761Z,12.18
2019-02-12T23:57:42.181Z,11.48
